sensor_id;sensor_type;location;lat;lon;timestamp;temperature;humidity
72320;SHT30;60269;52.502;16.732;2022-08-25T00:01:32;19.11;98.86
72320;SHT30;60269;52.502;16.732;2022-08-25T00:05:31;19.14;98.67
72320;SHT30;60269;52.502;16.732;2022-08-25T00:09:31;19.16;99.05
72320;SHT30;60269;52.502;16.732;2022-08-25T00:13:09;19.08;98.99
72320;SHT30;60269;52.502;16.732;2022-08-25T00:17:10;19.06;99.28
72320;SHT30;60269;52.502;16.732;2022-08-25T00:20:48;19.02;99.17
72320;SHT30;60269;52.502;16.732;2022-08-25T00:24:41;19.03;99.24
72320;SHT30;60269;52.502;16.732;2022-08-25T00:28:19;19.03;99.07
72320;SHT30;60269;52.502;16.732;2022-08-25T00:32:13;19.02;99.06
72320;SHT30;60269;52.502;16.732;2022-08-25T00:35:53;18.99;99.15
72320;SHT30;60269;52.502;16.732;2022-08-25T00:39:52;18.89;99.40
72320;SHT30;60269;52.502;16.732;2022-08-25T00:47:24;18.80;99.63
72320;SHT30;60269;52.502;16.732;2022-08-25T00:51:12;18.86;99.63
72320;SHT30;60269;52.502;16.732;2022-08-25T00:58:45;18.96;99.67
72320;SHT30;60269;52.502;16.732;2022-08-25T01:02:37;18.97;99.71
72320;SHT30;60269;52.502;16.732;2022-08-25T01:06:22;18.89;99.67
72320;SHT30;60269;52.502;16.732;2022-08-25T01:10:16;18.89;99.82
72320;SHT30;60269;52.502;16.732;2022-08-25T01:13:55;18.87;99.65
72320;SHT30;60269;52.502;16.732;2022-08-25T01:17:52;18.87;99.66
72320;SHT30;60269;52.502;16.732;2022-08-25T01:21:45;18.85;99.45
72320;SHT30;60269;52.502;16.732;2022-08-25T01:30:08;18.76;99.71
72320;SHT30;60269;52.502;16.732;2022-08-25T01:33:54;18.72;99.90
72320;SHT30;60269;52.502;16.732;2022-08-25T01:37:35;18.72;99.84
72320;SHT30;60269;52.502;16.732;2022-08-25T01:45:11;18.65;99.99
72320;SHT30;60269;52.502;16.732;2022-08-25T01:49:13;18.67;99.99
72320;SHT30;60269;52.502;16.732;2022-08-25T01:53:05;18.58;99.99
72320;SHT30;60269;52.502;16.732;2022-08-25T01:56:59;18.52;99.99
72320;SHT30;60269;52.502;16.732;2022-08-25T02:00:44;18.49;99.99
72320;SHT30;60269;52.502;16.732;2022-08-25T02:04:38;18.53;99.99
72320;SHT30;60269;52.502;16.732;2022-08-25T02:08:24;18.65;99.99
72320;SHT30;60269;52.502;16.732;2022-08-25T02:12:16;18.89;99.99
72320;SHT30;60269;52.502;16.732;2022-08-25T02:15:55;19.00;99.49
72320;SHT30;60269;52.502;16.732;2022-08-25T02:19:48;19.10;99.12
72320;SHT30;60269;52.502;16.732;2022-08-25T02:23:33;19.16;99.09
72320;SHT30;60269;52.502;16.732;2022-08-25T02:27:26;19.21;98.96
72320;SHT30;60269;52.502;16.732;2022-08-25T02:31:05;19.24;98.95
72320;SHT30;60269;52.502;16.732;2022-08-25T02:35:05;19.25;98.63
72320;SHT30;60269;52.502;16.732;2022-08-25T02:38:43;19.27;98.47
72320;SHT30;60269;52.502;16.732;2022-08-25T02:42:35;19.25;98.53
72320;SHT30;60269;52.502;16.732;2022-08-25T02:46:15;19.31;98.40
72320;SHT30;60269;52.502;16.732;2022-08-25T02:50:09;19.34;98.37
72320;SHT30;60269;52.502;16.732;2022-08-25T02:53:47;19.32;98.26
72320;SHT30;60269;52.502;16.732;2022-08-25T02:57:41;19.39;97.91
72320;SHT30;60269;52.502;16.732;2022-08-25T03:01:26;19.39;97.86
72320;SHT30;60269;52.502;16.732;2022-08-25T03:05:12;19.45;97.79
72320;SHT30;60269;52.502;16.732;2022-08-25T03:08:58;19.48;97.61
72320;SHT30;60269;52.502;16.732;2022-08-25T03:12:50;19.39;97.68
72320;SHT30;60269;52.502;16.732;2022-08-25T03:16:28;19.44;97.55
72320;SHT30;60269;52.502;16.732;2022-08-25T03:20:24;19.48;97.58
72320;SHT30;60269;52.502;16.732;2022-08-25T03:24:04;19.41;97.67
72320;SHT30;60269;52.502;16.732;2022-08-25T03:27:56;19.44;97.55
72320;SHT30;60269;52.502;16.732;2022-08-25T03:31:41;19.37;97.78
72320;SHT30;60269;52.502;16.732;2022-08-25T03:35:26;19.39;97.62
72320;SHT30;60269;52.502;16.732;2022-08-25T03:39:12;19.45;97.65
72320;SHT30;60269;52.502;16.732;2022-08-25T03:43:04;19.52;97.30
72320;SHT30;60269;52.502;16.732;2022-08-25T03:46:50;19.50;97.27
72320;SHT30;60269;52.502;16.732;2022-08-25T03:50:47;19.44;97.41
72320;SHT30;60269;52.502;16.732;2022-08-25T03:54:33;19.43;97.45
72320;SHT30;60269;52.502;16.732;2022-08-25T03:58:25;19.41;97.54
72320;SHT30;60269;52.502;16.732;2022-08-25T04:02:10;19.43;96.99
72320;SHT30;60269;52.502;16.732;2022-08-25T04:06:04;19.44;96.94
72320;SHT30;60269;52.502;16.732;2022-08-25T04:09:43;19.47;96.98
72320;SHT30;60269;52.502;16.732;2022-08-25T04:13:35;19.47;96.96
72320;SHT30;60269;52.502;16.732;2022-08-25T04:17:20;19.54;96.52
72320;SHT30;60269;52.502;16.732;2022-08-25T04:21:13;19.61;96.25
72320;SHT30;60269;52.502;16.732;2022-08-25T04:24:58;19.62;95.85
72320;SHT30;60269;52.502;16.732;2022-08-25T04:28:50;19.58;95.93
72320;SHT30;60269;52.502;16.732;2022-08-25T04:32:29;19.62;95.67
72320;SHT30;60269;52.502;16.732;2022-08-25T04:36:21;19.65;95.76
72320;SHT30;60269;52.502;16.732;2022-08-25T04:40:07;19.72;95.62
72320;SHT30;60269;52.502;16.732;2022-08-25T04:43:52;19.82;95.19
72320;SHT30;60269;52.502;16.732;2022-08-25T04:47:38;19.93;95.05
72320;SHT30;60269;52.502;16.732;2022-08-25T04:51:35;19.97;94.46
72320;SHT30;60269;52.502;16.732;2022-08-25T04:55:13;20.02;94.31
72320;SHT30;60269;52.502;16.732;2022-08-25T04:59:08;20.12;94.09
72320;SHT30;60269;52.502;16.732;2022-08-25T05:02:54;20.20;93.60
72320;SHT30;60269;52.502;16.732;2022-08-25T05:06:40;20.30;93.37
72320;SHT30;60269;52.502;16.732;2022-08-25T05:10:26;20.47;92.45
72320;SHT30;60269;52.502;16.732;2022-08-25T05:14:19;20.65;91.94
72320;SHT30;60269;52.502;16.732;2022-08-25T05:18:03;20.92;91.03
72320;SHT30;60269;52.502;16.732;2022-08-25T05:21:55;21.13;89.66
72320;SHT30;60269;52.502;16.732;2022-08-25T05:25:43;21.12;89.59
72320;SHT30;60269;52.502;16.732;2022-08-25T05:29:35;21.25;89.75
72320;SHT30;60269;52.502;16.732;2022-08-25T05:33:14;21.36;88.73
72320;SHT30;60269;52.502;16.732;2022-08-25T05:37:10;21.49;88.17
72320;SHT30;60269;52.502;16.732;2022-08-25T05:41:00;21.74;87.44
72320;SHT30;60269;52.502;16.732;2022-08-25T05:44:47;21.84;86.67
72320;SHT30;60269;52.502;16.732;2022-08-25T05:48:33;21.80;86.28
72320;SHT30;60269;52.502;16.732;2022-08-25T05:52:28;21.64;86.64
72320;SHT30;60269;52.502;16.732;2022-08-25T05:56:07;21.78;86.08
72320;SHT30;60269;52.502;16.732;2022-08-25T05:59:59;22.11;85.27
72320;SHT30;60269;52.502;16.732;2022-08-25T06:03:45;22.38;84.41
72320;SHT30;60269;52.502;16.732;2022-08-25T06:07:31;22.80;83.09
72320;SHT30;60269;52.502;16.732;2022-08-25T06:11:17;23.55;79.97
72320;SHT30;60269;52.502;16.732;2022-08-25T06:15:15;23.28;80.22
72320;SHT30;60269;52.502;16.732;2022-08-25T06:18:53;23.27;79.88
72320;SHT30;60269;52.502;16.732;2022-08-25T06:22:45;23.10;80.56
72320;SHT30;60269;52.502;16.732;2022-08-25T06:26:31;22.97;80.91
72320;SHT30;60269;52.502;16.732;2022-08-25T06:30:31;23.10;80.27
72320;SHT30;60269;52.502;16.732;2022-08-25T06:34:30;22.90;80.61
72320;SHT30;60269;52.502;16.732;2022-08-25T06:38:09;23.37;78.81
72320;SHT30;60269;52.502;16.732;2022-08-25T06:42:01;24.10;76.06
72320;SHT30;60269;52.502;16.732;2022-08-25T06:45:39;24.40;75.13
72320;SHT30;60269;52.502;16.732;2022-08-25T06:49:39;24.26;75.55
72320;SHT30;60269;52.502;16.732;2022-08-25T06:53:17;24.28;75.01
72320;SHT30;60269;52.502;16.732;2022-08-25T06:57:09;24.51;73.86
72320;SHT30;60269;52.502;16.732;2022-08-25T07:00:47;24.85;73.16
72320;SHT30;60269;52.502;16.732;2022-08-25T07:04:39;25.36;69.78
72320;SHT30;60269;52.502;16.732;2022-08-25T07:08:17;26.12;68.10
72320;SHT30;60269;52.502;16.732;2022-08-25T07:12:16;26.42;66.63
72320;SHT30;60269;52.502;16.732;2022-08-25T07:16:03;26.66;65.16
72320;SHT30;60269;52.502;16.732;2022-08-25T07:19:48;27.14;63.41
72320;SHT30;60269;52.502;16.732;2022-08-25T07:23:35;27.75;62.28
72320;SHT30;60269;52.502;16.732;2022-08-25T07:27:20;27.58;61.53
72320;SHT30;60269;52.502;16.732;2022-08-25T07:31:06;26.84;64.12
72320;SHT30;60269;52.502;16.732;2022-08-25T07:35:04;26.49;65.54
72320;SHT30;60269;52.502;16.732;2022-08-25T07:38:57;27.06;64.03
72320;SHT30;60269;52.502;16.732;2022-08-25T07:42:51;27.78;61.62
72320;SHT30;60269;52.502;16.732;2022-08-25T07:46:37;28.28;60.31
72320;SHT30;60269;52.502;16.732;2022-08-25T07:50:31;27.85;60.76
72320;SHT30;60269;52.502;16.732;2022-08-25T07:54:10;27.33;62.87
72320;SHT30;60269;52.502;16.732;2022-08-25T07:58:12;28.39;59.84
72320;SHT30;60269;52.502;16.732;2022-08-25T08:01:57;29.00;58.16
72320;SHT30;60269;52.502;16.732;2022-08-25T08:05:56;29.57;56.03
72320;SHT30;60269;52.502;16.732;2022-08-25T08:09:41;29.85;55.16
72320;SHT30;60269;52.502;16.732;2022-08-25T08:13:55;29.56;55.84
72320;SHT30;60269;52.502;16.732;2022-08-25T08:17:40;29.82;55.29
72320;SHT30;60269;52.502;16.732;2022-08-25T08:21:30;30.12;54.90
72320;SHT30;60269;52.502;16.732;2022-08-25T08:25:16;30.00;55.11
72320;SHT30;60269;52.502;16.732;2022-08-25T08:29:08;29.87;55.56
72320;SHT30;60269;52.502;16.732;2022-08-25T08:32:53;29.51;55.45
72320;SHT30;60269;52.502;16.732;2022-08-25T08:36:49;28.68;58.28
72320;SHT30;60269;52.502;16.732;2022-08-25T08:40:42;28.40;58.84
72320;SHT30;60269;52.502;16.732;2022-08-25T08:48:57;28.16;58.82
72320;SHT30;60269;52.502;16.732;2022-08-25T08:53:04;28.64;57.41
72320;SHT30;60269;52.502;16.732;2022-08-25T08:57:02;29.66;55.18
72320;SHT30;60269;52.502;16.732;2022-08-25T09:00:56;29.97;54.00
72320;SHT30;60269;52.502;16.732;2022-08-25T09:04:46;30.14;54.01
72320;SHT30;60269;52.502;16.732;2022-08-25T09:08:40;30.43;53.88
72320;SHT30;60269;52.502;16.732;2022-08-25T09:17:14;30.00;54.15
72320;SHT30;60269;52.502;16.732;2022-08-25T09:33:43;32.21;48.06
72320;SHT30;60269;52.502;16.732;2022-08-25T09:37:22;32.96;47.31
72320;SHT30;60269;52.502;16.732;2022-08-25T09:41:42;33.40;46.02
72320;SHT30;60269;52.502;16.732;2022-08-25T09:45:43;31.59;49.58
72320;SHT30;60269;52.502;16.732;2022-08-25T09:49:42;30.63;51.87
72320;SHT30;60269;52.502;16.732;2022-08-25T09:53:28;31.00;51.63
72320;SHT30;60269;52.502;16.732;2022-08-25T09:57:07;31.57;50.26
72320;SHT30;60269;52.502;16.732;2022-08-25T10:01:10;31.41;50.32
72320;SHT30;60269;52.502;16.732;2022-08-25T10:04:53;31.37;50.83
72320;SHT30;60269;52.502;16.732;2022-08-25T10:09:01;31.69;49.98
72320;SHT30;60269;52.502;16.732;2022-08-25T10:12:43;32.00;49.08
72320;SHT30;60269;52.502;16.732;2022-08-25T10:16:43;31.61;50.86
72320;SHT30;60269;52.502;16.732;2022-08-25T10:20:42;31.72;49.56
72320;SHT30;60269;52.502;16.732;2022-08-25T10:24:20;31.94;48.69
72320;SHT30;60269;52.502;16.732;2022-08-25T10:28:29;32.50;48.12
72320;SHT30;60269;52.502;16.732;2022-08-25T10:32:19;32.34;48.77
72320;SHT30;60269;52.502;16.732;2022-08-25T10:36:22;32.02;49.35
72320;SHT30;60269;52.502;16.732;2022-08-25T10:44:23;32.98;47.64
72320;SHT30;60269;52.502;16.732;2022-08-25T10:48:50;33.05;47.99
72320;SHT30;60269;52.502;16.732;2022-08-25T10:57:27;34.38;43.90
72320;SHT30;60269;52.502;16.732;2022-08-25T11:05:43;33.22;46.35
72320;SHT30;60269;52.502;16.732;2022-08-25T11:09:40;33.22;46.35
72320;SHT30;60269;52.502;16.732;2022-08-25T11:13:41;32.43;46.93
72320;SHT30;60269;52.502;16.732;2022-08-25T11:17:35;31.59;49.10
72320;SHT30;60269;52.502;16.732;2022-08-25T11:21:43;32.53;47.47
72320;SHT30;60269;52.502;16.732;2022-08-25T11:25:42;34.32;44.21
72320;SHT30;60269;52.502;16.732;2022-08-25T11:29:24;35.55;40.85
72320;SHT30;60269;52.502;16.732;2022-08-25T11:33:18;36.33;41.04
72320;SHT30;60269;52.502;16.732;2022-08-25T11:37:13;36.97;39.49
72320;SHT30;60269;52.502;16.732;2022-08-25T11:41:29;37.62;38.09
72320;SHT30;60269;52.502;16.732;2022-08-25T11:53:28;35.66;40.66
72320;SHT30;60269;52.502;16.732;2022-08-25T11:57:28;35.31;41.76
72320;SHT30;60269;52.502;16.732;2022-08-25T12:01:57;35.03;41.76
72320;SHT30;60269;52.502;16.732;2022-08-25T12:05:48;35.04;41.84
72320;SHT30;60269;52.502;16.732;2022-08-25T12:09:22;34.41;43.77
72320;SHT30;60269;52.502;16.732;2022-08-25T12:17:37;35.24;41.92
72320;SHT30;60269;52.502;16.732;2022-08-25T12:21:29;36.39;39.69
72320;SHT30;60269;52.502;16.732;2022-08-25T12:25:34;37.42;37.83
72320;SHT30;60269;52.502;16.732;2022-08-25T12:29:44;37.26;37.64
72320;SHT30;60269;52.502;16.732;2022-08-25T12:38:26;37.82;36.99
72320;SHT30;60269;52.502;16.732;2022-08-25T12:42:31;38.13;36.64
72320;SHT30;60269;52.502;16.732;2022-08-25T12:46:43;39.29;35.15
72320;SHT30;60269;52.502;16.732;2022-08-25T12:50:47;38.49;36.33
72320;SHT30;60269;52.502;16.732;2022-08-25T12:54:57;37.02;38.68
72320;SHT30;60269;52.502;16.732;2022-08-25T12:58:53;35.31;41.97
72320;SHT30;60269;52.502;16.732;2022-08-25T13:11:19;32.91;46.41
72320;SHT30;60269;52.502;16.732;2022-08-25T13:15:46;33.21;46.04
72320;SHT30;60269;52.502;16.732;2022-08-25T13:19:26;33.96;44.13
72320;SHT30;60269;52.502;16.732;2022-08-25T13:23:27;33.34;46.21
72320;SHT30;60269;52.502;16.732;2022-08-25T13:27:26;32.57;47.33
72320;SHT30;60269;52.502;16.732;2022-08-25T13:31:14;33.61;45.68
72320;SHT30;60269;52.502;16.732;2022-08-25T13:39:10;34.18;43.87
72320;SHT30;60269;52.502;16.732;2022-08-25T13:43:29;34.45;43.18
72320;SHT30;60269;52.502;16.732;2022-08-25T13:47:11;34.62;43.05
72320;SHT30;60269;52.502;16.732;2022-08-25T13:51:24;36.49;39.34
72320;SHT30;60269;52.502;16.732;2022-08-25T13:55:04;37.49;37.93
72320;SHT30;60269;52.502;16.732;2022-08-25T13:59:06;36.26;40.16
72320;SHT30;60269;52.502;16.732;2022-08-25T14:02:55;35.27;41.54
72320;SHT30;60269;52.502;16.732;2022-08-25T14:11:10;34.52;42.95
72320;SHT30;60269;52.502;16.732;2022-08-25T14:19:01;36.76;39.28
72320;SHT30;60269;52.502;16.732;2022-08-25T14:22:51;36.73;39.75
72320;SHT30;60269;52.502;16.732;2022-08-25T14:26:38;36.43;39.53
72320;SHT30;60269;52.502;16.732;2022-08-25T14:30:39;36.78;39.41
72320;SHT30;60269;52.502;16.732;2022-08-25T14:34:26;35.64;40.95
72320;SHT30;60269;52.502;16.732;2022-08-25T14:38:21;36.78;38.13
72320;SHT30;60269;52.502;16.732;2022-08-25T14:42:07;37.76;36.73
72320;SHT30;60269;52.502;16.732;2022-08-25T14:46:13;37.83;36.81
72320;SHT30;60269;52.502;16.732;2022-08-25T14:49:52;37.97;36.77
72320;SHT30;60269;52.502;16.732;2022-08-25T14:53:44;36.56;39.53
72320;SHT30;60269;52.502;16.732;2022-08-25T14:57:29;34.60;43.03
72320;SHT30;60269;52.502;16.732;2022-08-25T15:01:22;33.56;45.02
72320;SHT30;60269;52.502;16.732;2022-08-25T15:05:08;32.74;46.80
72320;SHT30;60269;52.502;16.732;2022-08-25T15:09:01;33.90;44.76
72320;SHT30;60269;52.502;16.732;2022-08-25T15:12:52;35.14;41.38
72320;SHT30;60269;52.502;16.732;2022-08-25T15:16:47;35.71;40.23
72320;SHT30;60269;52.502;16.732;2022-08-25T15:20:26;36.37;38.99
72320;SHT30;60269;52.502;16.732;2022-08-25T15:24:19;36.76;38.40
72320;SHT30;60269;52.502;16.732;2022-08-25T15:27:58;36.99;37.97
72320;SHT30;60269;52.502;16.732;2022-08-25T15:31:55;36.58;38.29
72320;SHT30;60269;52.502;16.732;2022-08-25T15:35:40;35.92;40.16
72320;SHT30;60269;52.502;16.732;2022-08-25T15:39:32;35.31;41.44
72320;SHT30;60269;52.502;16.732;2022-08-25T15:43:17;33.70;44.35
72320;SHT30;60269;52.502;16.732;2022-08-25T15:47:03;32.53;46.98
72320;SHT30;60269;52.502;16.732;2022-08-25T15:50:52;32.55;47.19
72320;SHT30;60269;52.502;16.732;2022-08-25T15:54:37;33.36;45.85
72320;SHT30;60269;52.502;16.732;2022-08-25T15:58:23;33.43;45.43
72320;SHT30;60269;52.502;16.732;2022-08-25T16:02:26;33.77;44.80
72320;SHT30;60269;52.502;16.732;2022-08-25T16:06:11;33.74;44.76
72320;SHT30;60269;52.502;16.732;2022-08-25T16:10:04;33.91;44.55
72320;SHT30;60269;52.502;16.732;2022-08-25T16:13:51;34.07;44.47
72320;SHT30;60269;52.502;16.732;2022-08-25T16:17:43;33.70;45.06
72320;SHT30;60269;52.502;16.732;2022-08-25T16:21:28;33.40;45.99
72320;SHT30;60269;52.502;16.732;2022-08-25T16:25:31;32.92;47.11
72320;SHT30;60269;52.502;16.732;2022-08-25T16:29:09;32.60;47.77
72320;SHT30;60269;52.502;16.732;2022-08-25T16:33:10;32.24;48.37
72320;SHT30;60269;52.502;16.732;2022-08-25T16:36:51;32.05;49.27
72320;SHT30;60269;52.502;16.732;2022-08-25T16:40:44;31.85;49.73
72320;SHT30;60269;52.502;16.732;2022-08-25T16:44:23;31.62;50.45
72320;SHT30;60269;52.502;16.732;2022-08-25T16:48:23;31.18;51.32
72320;SHT30;60269;52.502;16.732;2022-08-25T16:52:02;30.95;52.35
72320;SHT30;60269;52.502;16.732;2022-08-25T16:56:14;30.60;53.42
72320;SHT30;60269;52.502;16.732;2022-08-25T16:59:57;30.12;54.55
72320;SHT30;60269;52.502;16.732;2022-08-25T17:03:58;29.88;55.35
72320;SHT30;60269;52.502;16.732;2022-08-25T17:07:38;29.71;55.88
72320;SHT30;60269;52.502;16.732;2022-08-25T17:11:50;29.37;57.04
72320;SHT30;60269;52.502;16.732;2022-08-25T17:15:30;29.12;57.88
72320;SHT30;60269;52.502;16.732;2022-08-25T17:19:29;28.67;59.50
72320;SHT30;60269;52.502;16.732;2022-08-25T17:23:35;28.37;60.35
72320;SHT30;60269;52.502;16.732;2022-08-25T17:27:35;28.12;61.07
72320;SHT30;60269;52.502;16.732;2022-08-25T17:31:17;27.56;63.11
72320;SHT30;60269;52.502;16.732;2022-08-25T17:35:18;27.23;64.30
72320;SHT30;60269;52.502;16.732;2022-08-25T17:38:57;27.00;65.12
72320;SHT30;60269;52.502;16.732;2022-08-25T17:42:48;26.76;65.52
72320;SHT30;60269;52.502;16.732;2022-08-25T17:46:27;26.52;66.06
72320;SHT30;60269;52.502;16.732;2022-08-25T17:50:31;26.18;67.45
72320;SHT30;60269;52.502;16.732;2022-08-25T17:54:11;25.94;68.41
72320;SHT30;60269;52.502;16.732;2022-08-25T17:58:13;25.67;69.45
72320;SHT30;60269;52.502;16.732;2022-08-25T18:01:51;25.47;70.10
72320;SHT30;60269;52.502;16.732;2022-08-25T18:05:50;25.29;71.15
72320;SHT30;60269;52.502;16.732;2022-08-25T18:09:49;25.09;71.42
72320;SHT30;60269;52.502;16.732;2022-08-25T18:13:28;24.95;72.22
72320;SHT30;60269;52.502;16.732;2022-08-25T18:17:26;24.75;72.72
72320;SHT30;60269;52.502;16.732;2022-08-25T18:21:25;24.61;73.46
72320;SHT30;60269;52.502;16.732;2022-08-25T18:25:06;24.55;73.45
72320;SHT30;60269;52.502;16.732;2022-08-25T18:28:57;24.46;74.14
72320;SHT30;60269;52.502;16.732;2022-08-25T18:32:36;24.36;74.33
72320;SHT30;60269;52.502;16.732;2022-08-25T18:36:35;24.28;74.62
72320;SHT30;60269;52.502;16.732;2022-08-25T18:40:15;24.20;75.21
72320;SHT30;60269;52.502;16.732;2022-08-25T18:44:01;24.06;75.63
72320;SHT30;60269;52.502;16.732;2022-08-25T18:47:47;24.00;76.02
72320;SHT30;60269;52.502;16.732;2022-08-25T18:51:30;23.79;76.92
72320;SHT30;60269;52.502;16.732;2022-08-25T18:55:28;23.68;77.27
72320;SHT30;60269;52.502;16.732;2022-08-25T18:59:14;23.49;77.97
72320;SHT30;60269;52.502;16.732;2022-08-25T19:03:00;23.38;78.61
72320;SHT30;60269;52.502;16.732;2022-08-25T19:06:46;23.21;79.08
72320;SHT30;60269;52.502;16.732;2022-08-25T19:10:38;23.08;80.14
72320;SHT30;60269;52.502;16.732;2022-08-25T19:14:19;22.93;80.40
72320;SHT30;60269;52.502;16.732;2022-08-25T19:18:11;22.84;81.22
72320;SHT30;60269;52.502;16.732;2022-08-25T19:22:06;22.77;81.30
72320;SHT30;60269;52.502;16.732;2022-08-25T19:26:10;22.69;81.76
72320;SHT30;60269;52.502;16.732;2022-08-25T19:29:56;22.64;81.69
72320;SHT30;60269;52.502;16.732;2022-08-25T19:33:49;22.57;82.38
72320;SHT30;60269;52.502;16.732;2022-08-25T19:37:35;22.46;82.66
72320;SHT30;60269;52.502;16.732;2022-08-25T19:41:28;22.34;83.32
72320;SHT30;60269;52.502;16.732;2022-08-25T19:45:14;22.22;83.61
72320;SHT30;60269;52.502;16.732;2022-08-25T19:49:04;22.21;84.12
72320;SHT30;60269;52.502;16.732;2022-08-25T19:52:50;22.08;84.39
72320;SHT30;60269;52.502;16.732;2022-08-25T19:56:42;21.97;84.80
72320;SHT30;60269;52.502;16.732;2022-08-25T20:00:33;21.83;85.84
72320;SHT30;60269;52.502;16.732;2022-08-25T20:04:28;21.68;86.27
72320;SHT30;60269;52.502;16.732;2022-08-25T20:08:07;21.54;86.80
72320;SHT30;60269;52.502;16.732;2022-08-25T20:11:45;21.56;87.28
72320;SHT30;60269;52.502;16.732;2022-08-25T20:15:37;21.66;86.68
72320;SHT30;60269;52.502;16.732;2022-08-25T20:19:15;21.64;86.62
72320;SHT30;60269;52.502;16.732;2022-08-25T20:23:07;21.64;86.80
72320;SHT30;60269;52.502;16.732;2022-08-25T20:27:04;21.63;86.66
72320;SHT30;60269;52.502;16.732;2022-08-25T20:30:57;21.61;86.66
72320;SHT30;60269;52.502;16.732;2022-08-25T20:34:42;21.56;86.91
72320;SHT30;60269;52.502;16.732;2022-08-25T20:38:34;21.66;86.49
72320;SHT30;60269;52.502;16.732;2022-08-25T20:42:13;21.74;85.46
72320;SHT30;60269;52.502;16.732;2022-08-25T20:46:06;21.73;85.87
72320;SHT30;60269;52.502;16.732;2022-08-25T20:49:53;21.64;86.10
72320;SHT30;60269;52.502;16.732;2022-08-25T20:53:43;21.60;86.31
72320;SHT30;60269;52.502;16.732;2022-08-25T20:57:29;21.50;86.75
72320;SHT30;60269;52.502;16.732;2022-08-25T21:01:29;21.49;86.84
72320;SHT30;60269;52.502;16.732;2022-08-25T21:05:19;21.39;86.96
72320;SHT30;60269;52.502;16.732;2022-08-25T21:09:21;21.39;87.13
72320;SHT30;60269;52.502;16.732;2022-08-25T21:13:00;21.36;87.34
72320;SHT30;60269;52.502;16.732;2022-08-25T21:16:59;21.36;87.28
72320;SHT30;60269;52.502;16.732;2022-08-25T21:21:07;21.20;87.87
72320;SHT30;60269;52.502;16.732;2022-08-25T21:24:49;21.22;87.92
72320;SHT30;60269;52.502;16.732;2022-08-25T21:28:47;21.19;87.93
72320;SHT30;60269;52.502;16.732;2022-08-25T21:32:47;21.09;88.38
72320;SHT30;60269;52.502;16.732;2022-08-25T21:36:28;21.09;88.38
72320;SHT30;60269;52.502;16.732;2022-08-25T21:40:26;21.08;88.58
72320;SHT30;60269;52.502;16.732;2022-08-25T21:44:21;21.05;88.70
72320;SHT30;60269;52.502;16.732;2022-08-25T21:48:07;20.99;88.92
72320;SHT30;60269;52.502;16.732;2022-08-25T21:51:45;21.05;88.90
72320;SHT30;60269;52.502;16.732;2022-08-25T21:55:44;21.05;89.16
72320;SHT30;60269;52.502;16.732;2022-08-25T21:59:46;20.95;89.51
72320;SHT30;60269;52.502;16.732;2022-08-25T22:03:33;20.91;89.84
72320;SHT30;60269;52.502;16.732;2022-08-25T22:07:27;20.88;89.92
72320;SHT30;60269;52.502;16.732;2022-08-25T22:11:19;20.78;90.64
72320;SHT30;60269;52.502;16.732;2022-08-25T22:15:04;20.78;90.82
72320;SHT30;60269;52.502;16.732;2022-08-25T22:18:51;20.74;91.01
72320;SHT30;60269;52.502;16.732;2022-08-25T22:22:43;20.71;91.20
72320;SHT30;60269;52.502;16.732;2022-08-25T22:26:22;20.68;91.29
72320;SHT30;60269;52.502;16.732;2022-08-25T22:30:14;20.65;91.68
72320;SHT30;60269;52.502;16.732;2022-08-25T22:34:00;20.57;91.83
72320;SHT30;60269;52.502;16.732;2022-08-25T22:37:46;20.47;92.48
72320;SHT30;60269;52.502;16.732;2022-08-25T22:41:32;20.43;92.59
72320;SHT30;60269;52.502;16.732;2022-08-25T22:45:23;20.37;92.70
72320;SHT30;60269;52.502;16.732;2022-08-25T22:49:10;20.43;92.82
72320;SHT30;60269;52.502;16.732;2022-08-25T22:52:57;20.45;92.93
72320;SHT30;60269;52.502;16.732;2022-08-25T22:56:43;20.40;93.04
72320;SHT30;60269;52.502;16.732;2022-08-25T23:00:37;20.29;93.85
72320;SHT30;60269;52.502;16.732;2022-08-25T23:04:24;20.24;94.01
72320;SHT30;60269;52.502;16.732;2022-08-25T23:08:08;20.23;94.23
72320;SHT30;60269;52.502;16.732;2022-08-25T23:12:12;20.23;94.40
72320;SHT30;60269;52.502;16.732;2022-08-25T23:16:04;20.17;94.57
72320;SHT30;60269;52.502;16.732;2022-08-25T23:19:46;20.23;94.54
72320;SHT30;60269;52.502;16.732;2022-08-25T23:23:37;20.17;94.66
72320;SHT30;60269;52.502;16.732;2022-08-25T23:27:26;20.10;95.08
72320;SHT30;60269;52.502;16.732;2022-08-25T23:31:12;20.05;95.34
72320;SHT30;60269;52.502;16.732;2022-08-25T23:34:58;20.03;95.61
72320;SHT30;60269;52.502;16.732;2022-08-25T23:38:49;20.03;95.81
72320;SHT30;60269;52.502;16.732;2022-08-25T23:42:29;19.99;96.07
72320;SHT30;60269;52.502;16.732;2022-08-25T23:46:26;19.96;96.54
72320;SHT30;60269;52.502;16.732;2022-08-25T23:50:06;19.87;96.60
72320;SHT30;60269;52.502;16.732;2022-08-25T23:54:06;19.89;97.01
72320;SHT30;60269;52.502;16.732;2022-08-25T23:57:46;19.79;97.36
